createdAt,value
2024-05-09T00:00:29.765Z,6.34
2024-05-09T00:01:33.141Z,6.47
2024-05-09T00:02:37.476Z,6.51
2024-05-09T00:03:40.796Z,6.46
2024-05-09T00:04:42.558Z,6.54
2024-05-09T00:05:44.591Z,6.62
2024-05-09T00:06:46.417Z,6.68
2024-05-09T00:07:48.264Z,6.71
2024-05-09T00:08:50.010Z,6.61
2024-05-09T00:09:51.643Z,6.38
2024-05-09T00:10:53.397Z,6.34
2024-05-09T00:11:55.282Z,6.34
2024-05-09T00:12:57.043Z,6.24
2024-05-09T00:13:58.767Z,6.08
2024-05-09T00:15:00.418Z,5.97
2024-05-09T00:16:02.070Z,6.02
2024-05-09T00:17:04.160Z,5.84
2024-05-09T00:18:08.896Z,5.89
2024-05-09T00:19:10.942Z,5.78
2024-05-09T00:20:17.933Z,5.71
2024-05-09T00:21:26.066Z,5.67
2024-05-09T00:22:27.763Z,5.67
2024-05-09T00:23:29.569Z,5.76
2024-05-09T00:24:31.290Z,5.90
2024-05-09T00:25:32.896Z,5.98
2024-05-09T00:26:34.718Z,6.04
2024-05-09T00:27:36.456Z,6.02
2024-05-09T00:28:38.087Z,6.10
2024-05-09T00:29:39.734Z,6.06
2024-05-09T00:30:41.681Z,6.03
2024-05-09T00:31:43.435Z,6.06
2024-05-09T00:32:45.241Z,6.16
2024-05-09T00:33:49.640Z,6.22
2024-05-09T00:34:51.382Z,6.24
2024-05-09T00:35:53.017Z,6.23
2024-05-09T00:36:54.639Z,6.16
2024-05-09T00:37:56.269Z,5.95
2024-05-09T00:38:57.963Z,5.64
2024-05-09T00:39:59.689Z,5.58
2024-05-09T00:41:01.462Z,5.70
2024-05-09T00:42:03.534Z,5.79
2024-05-09T00:43:05.507Z,5.89
2024-05-09T00:44:07.248Z,5.90
2024-05-09T00:45:08.920Z,5.95
2024-05-09T00:46:11.063Z,6.05
2024-05-09T00:47:12.826Z,6.16
2024-05-09T00:48:19.724Z,6.20
2024-05-09T00:49:26.725Z,6.21
2024-05-09T00:50:35.680Z,6.19
2024-05-09T00:51:39.885Z,6.20
2024-05-09T00:52:41.624Z,6.14
2024-05-09T00:53:43.368Z,5.83
2024-05-09T00:54:45.009Z,5.72
2024-05-09T00:55:47.073Z,5.74
2024-05-09T00:56:49.535Z,5.76
2024-05-09T00:57:51.615Z,5.71
2024-05-09T00:58:54.971Z,5.76
2024-05-09T00:59:56.848Z,5.91
2024-05-09T01:00:59.408Z,6.04
2024-05-09T01:02:01.249Z,6.14
2024-05-09T01:03:03.285Z,6.17
2024-05-09T01:04:05.931Z,5.95
2024-05-09T01:05:10.551Z,5.97
2024-05-09T01:06:12.396Z,6.09
2024-05-09T01:07:14.146Z,6.15
2024-05-09T01:08:15.936Z,6.24
2024-05-09T01:09:17.642Z,6.29
2024-05-09T01:10:27.588Z,6.30
2024-05-09T01:11:36.828Z,6.01
2024-05-09T01:12:38.500Z,5.80
2024-05-09T01:13:40.177Z,5.64
2024-05-09T01:14:41.926Z,5.59
2024-05-09T01:15:43.611Z,5.58
2024-05-09T01:16:45.348Z,5.69
2024-05-09T01:17:47.366Z,5.87
2024-05-09T01:18:49.460Z,6.03
2024-05-09T01:19:51.269Z,5.91
2024-05-09T01:20:55.637Z,5.95
2024-05-09T01:21:57.269Z,6.13
2024-05-09T01:23:00.984Z,6.31
2024-05-09T01:24:05.943Z,6.44
2024-05-09T01:25:07.574Z,6.54
2024-05-09T01:26:09.237Z,6.52
2024-05-09T01:27:10.940Z,6.10
2024-05-09T01:28:12.645Z,5.50
2024-05-09T01:29:14.465Z,5.48
2024-05-09T01:30:21.009Z,5.71
2024-05-09T01:31:26.184Z,5.88
2024-05-09T01:32:28.019Z,6.02
2024-05-09T01:33:30.046Z,6.01
2024-05-09T01:34:31.756Z,6.15
2024-05-09T01:35:33.451Z,6.24
2024-05-09T01:36:35.173Z,6.35
2024-05-09T01:37:36.873Z,6.52
2024-05-09T01:38:38.522Z,6.66
2024-05-09T01:39:42.839Z,6.73
2024-05-09T01:40:45.018Z,6.56
2024-05-09T01:41:46.690Z,6.58
2024-05-09T01:42:48.310Z,6.65
2024-05-09T01:43:50.047Z,6.69
2024-05-09T01:44:51.636Z,6.65
2024-05-09T01:45:53.237Z,6.74
2024-05-09T01:46:54.903Z,6.81
2024-05-09T01:47:56.733Z,6.90
2024-05-09T01:48:58.561Z,6.83
2024-05-09T01:50:00.407Z,6.67
2024-05-09T01:51:02.193Z,6.56
2024-05-09T01:52:04.475Z,6.42
2024-05-09T01:53:06.191Z,6.33
2024-05-09T01:54:09.017Z,6.06
2024-05-09T01:55:13.544Z,6.10
2024-05-09T01:56:15.298Z,6.23
2024-05-09T01:57:16.988Z,6.29
2024-05-09T01:58:18.591Z,6.23
2024-05-09T01:59:20.484Z,6.00
2024-05-09T02:00:30.642Z,5.95
2024-05-09T02:01:56.029Z,6.01
2024-05-09T02:02:59.468Z,6.12
2024-05-09T02:04:01.567Z,6.19
2024-05-09T02:05:03.995Z,6.08
2024-05-09T02:06:05.802Z,5.93
2024-05-09T02:07:07.963Z,5.83
2024-05-09T02:08:13.155Z,5.75
2024-05-09T02:09:15.638Z,5.89
2024-05-09T02:10:26.185Z,5.99
2024-05-09T02:11:40.600Z,6.03
2024-05-09T02:12:42.296Z,5.98
2024-05-09T02:13:44.212Z,5.86
2024-05-09T02:14:45.829Z,5.78
2024-05-09T02:15:47.442Z,5.69
2024-05-09T02:16:49.197Z,5.50
2024-05-09T02:17:50.978Z,5.42
2024-05-09T02:18:52.795Z,5.58
2024-05-09T02:19:54.576Z,5.74
2024-05-09T02:20:56.366Z,5.69
2024-05-09T02:21:58.047Z,5.70
2024-05-09T02:22:59.739Z,5.68
2024-05-09T02:24:01.402Z,5.67
2024-05-09T02:25:03.058Z,5.63
2024-05-09T02:26:07.422Z,5.33
2024-05-09T02:27:09.043Z,5.09
2024-05-09T02:28:10.872Z,5.19
2024-05-09T02:29:12.506Z,5.35
2024-05-09T02:30:22.509Z,5.48
2024-05-09T02:31:27.879Z,5.58
2024-05-09T02:32:29.585Z,5.62
2024-05-09T02:33:31.526Z,5.60
2024-05-09T02:34:33.314Z,5.54
2024-05-09T02:35:35.084Z,5.51
2024-05-09T02:36:36.769Z,5.42
2024-05-09T02:37:38.398Z,5.30
2024-05-09T02:38:40.138Z,5.28
2024-05-09T02:39:41.768Z,5.24
2024-05-09T02:40:43.364Z,5.32
2024-05-09T02:41:47.654Z,5.37
2024-05-09T02:42:49.630Z,5.38
2024-05-09T02:43:51.354Z,5.21
2024-05-09T02:44:53.007Z,5.00
2024-05-09T02:45:54.624Z,4.94
2024-05-09T02:46:56.319Z,4.83
2024-05-09T02:47:58.304Z,4.89
2024-05-09T02:49:00.519Z,4.87
2024-05-09T02:50:02.375Z,4.74
2024-05-09T02:51:04.711Z,4.75
2024-05-09T02:52:06.631Z,4.75
2024-05-09T02:53:09.301Z,4.64
2024-05-09T02:54:11.578Z,4.50
2024-05-09T02:55:13.289Z,4.35
2024-05-09T02:56:14.926Z,4.26
2024-05-09T02:57:19.228Z,4.25
2024-05-09T02:58:20.850Z,4.34
2024-05-09T02:59:22.677Z,4.37
2024-05-09T03:00:33.690Z,4.44
2024-05-09T03:01:39.522Z,4.52
2024-05-09T03:02:42.783Z,4.36
2024-05-09T03:03:44.821Z,4.28
2024-05-09T03:04:46.748Z,4.31
2024-05-09T03:05:48.398Z,4.29
2024-05-09T03:06:50.035Z,4.31
2024-05-09T03:07:51.797Z,4.29
2024-05-09T03:08:53.440Z,4.27
2024-05-09T03:09:55.150Z,4.34
2024-05-09T03:10:56.842Z,4.39
2024-05-09T03:11:58.582Z,4.55
2024-05-09T03:13:05.612Z,4.69
2024-05-09T03:14:07.300Z,4.76
2024-05-09T03:15:08.958Z,4.77
2024-05-09T03:16:10.564Z,4.59
2024-05-09T03:17:12.263Z,4.30
2024-05-09T03:18:15.138Z,3.98
2024-05-09T03:19:16.996Z,3.85
2024-05-09T03:20:23.803Z,3.95
2024-05-09T03:21:29.248Z,4.17
2024-05-09T03:22:30.833Z,4.35
2024-05-09T03:23:32.473Z,4.42
2024-05-09T03:24:34.123Z,4.31
2024-05-09T03:25:36.028Z,4.12
2024-05-09T03:26:37.854Z,4.16
2024-05-09T03:27:39.493Z,4.28
2024-05-09T03:28:44.374Z,4.35
2024-05-09T03:29:46.023Z,4.38
2024-05-09T03:30:47.610Z,4.24
2024-05-09T03:31:49.404Z,4.19
2024-05-09T03:32:51.346Z,4.12
2024-05-09T03:33:53.205Z,4.11
2024-05-09T03:34:54.949Z,4.09
2024-05-09T03:35:56.600Z,4.00
2024-05-09T03:36:58.236Z,3.89
2024-05-09T03:37:59.875Z,3.90
2024-05-09T03:39:01.536Z,3.94
2024-05-09T03:40:05.534Z,4.06
2024-05-09T03:41:09.272Z,4.22
2024-05-09T03:42:10.923Z,4.26
2024-05-09T03:43:12.706Z,4.19
2024-05-09T03:44:17.717Z,4.20
2024-05-09T03:45:19.421Z,4.06
2024-05-09T03:46:21.139Z,4.01
2024-05-09T03:47:22.954Z,4.12
2024-05-09T03:48:24.959Z,4.28
2024-05-09T03:49:26.712Z,4.23
2024-05-09T03:50:33.852Z,3.98
2024-05-09T03:51:37.456Z,3.98
2024-05-09T03:52:39.135Z,4.17
2024-05-09T03:53:40.852Z,4.32
2024-05-09T03:54:45.112Z,4.24
2024-05-09T03:55:46.808Z,4.07
2024-05-09T03:56:48.482Z,4.07
2024-05-09T03:57:50.122Z,4.14
2024-05-09T03:58:51.820Z,4.19
2024-05-09T03:59:56.034Z,4.24
2024-05-09T04:00:57.775Z,4.23
2024-05-09T04:01:59.524Z,4.31
2024-05-09T04:03:01.664Z,4.46
2024-05-09T04:04:03.968Z,4.63
2024-05-09T04:05:05.880Z,4.72
2024-05-09T04:06:07.535Z,4.77
2024-05-09T04:07:09.151Z,4.77
2024-05-09T04:08:11.306Z,4.72
2024-05-09T04:09:13.208Z,4.56
2024-05-09T04:10:23.698Z,4.52
2024-05-09T04:11:29.610Z,4.39
2024-05-09T04:12:31.401Z,4.38
2024-05-09T04:13:33.063Z,4.50
2024-05-09T04:14:34.713Z,4.66
2024-05-09T04:15:39.198Z,4.71
2024-05-09T04:16:40.885Z,4.78
2024-05-09T04:17:42.683Z,4.71
2024-05-09T04:18:44.430Z,4.67
2024-05-09T04:19:46.199Z,4.48
2024-05-09T04:20:47.957Z,4.35
2024-05-09T04:21:49.574Z,4.48
2024-05-09T04:22:51.304Z,4.61
2024-05-09T04:23:53.195Z,4.73
2024-05-09T04:24:54.843Z,4.64
2024-05-09T04:25:56.460Z,4.45
2024-05-09T04:26:58.126Z,4.41
2024-05-09T04:27:59.723Z,4.43
2024-05-09T04:29:01.366Z,4.48
2024-05-09T04:30:03.722Z,4.44
2024-05-09T04:31:09.020Z,4.44
2024-05-09T04:32:10.874Z,4.47
2024-05-09T04:33:15.031Z,4.49
2024-05-09T04:34:17.277Z,4.58
2024-05-09T04:35:19.119Z,4.60
2024-05-09T04:36:20.946Z,4.47
2024-05-09T04:37:22.596Z,4.39
2024-05-09T04:38:24.273Z,4.42
2024-05-09T04:39:25.902Z,4.57
2024-05-09T04:40:33.229Z,4.79
2024-05-09T04:41:38.867Z,4.98
2024-05-09T04:42:41.077Z,4.92
2024-05-09T04:43:42.690Z,4.89
2024-05-09T04:44:44.324Z,4.82
2024-05-09T04:45:45.947Z,4.78
2024-05-09T04:46:50.277Z,4.95
2024-05-09T04:47:52.230Z,5.10
2024-05-09T04:48:54.139Z,5.25
2024-05-09T04:49:55.900Z,5.33
2024-05-09T04:50:57.610Z,5.19
2024-05-09T04:51:59.271Z,5.02
2024-05-09T04:53:01.095Z,5.05
2024-05-09T04:54:02.755Z,5.23
2024-05-09T04:55:05.082Z,5.42
2024-05-09T04:56:07.602Z,5.53
2024-05-09T04:57:09.239Z,5.59
2024-05-09T04:58:11.344Z,5.64
2024-05-09T04:59:13.098Z,5.68
2024-05-09T05:00:21.844Z,5.72
2024-05-09T05:01:30.353Z,5.69
2024-05-09T05:02:34.802Z,5.71
2024-05-09T05:03:36.591Z,5.67
2024-05-09T05:04:38.366Z,5.65
2024-05-09T05:05:40.706Z,5.68
2024-05-09T05:06:42.731Z,5.78
2024-05-09T05:07:44.381Z,5.95
2024-05-09T05:08:46.006Z,6.09
2024-05-09T05:09:47.716Z,6.05
2024-05-09T05:10:49.707Z,6.06
2024-05-09T05:11:51.807Z,6.10
2024-05-09T05:12:53.459Z,6.21
2024-05-09T05:13:55.130Z,6.25
2024-05-09T05:14:56.859Z,6.38
2024-05-09T05:15:58.846Z,6.46
2024-05-09T05:17:00.681Z,6.53
2024-05-09T05:18:05.706Z,6.60
2024-05-09T05:19:10.822Z,6.68
2024-05-09T05:20:17.903Z,6.76
2024-05-09T05:21:25.811Z,6.85
2024-05-09T05:22:27.630Z,6.97
2024-05-09T05:23:29.352Z,7.04
2024-05-09T05:24:30.992Z,7.06
2024-05-09T05:25:32.622Z,7.13
2024-05-09T05:26:34.449Z,7.22
2024-05-09T05:27:36.199Z,7.17
2024-05-09T05:28:37.833Z,7.17
2024-05-09T05:29:39.514Z,7.29
2024-05-09T05:30:41.280Z,7.49
2024-05-09T05:31:42.964Z,7.54
2024-05-09T05:32:44.858Z,7.60
2024-05-09T05:33:49.810Z,7.70
2024-05-09T05:34:51.801Z,7.82
2024-05-09T05:35:53.488Z,7.90
2024-05-09T05:36:55.137Z,7.91
2024-05-09T05:37:56.816Z,7.83
2024-05-09T05:38:58.501Z,7.89
2024-05-09T05:40:00.181Z,8.05
2024-05-09T05:41:01.849Z,8.18
2024-05-09T05:42:03.885Z,8.28
2024-05-09T05:43:06.683Z,8.11
2024-05-09T05:44:08.372Z,8.30
2024-05-09T05:45:10.119Z,8.41
2024-05-09T05:46:11.798Z,8.17
2024-05-09T05:47:13.664Z,8.22
2024-05-09T05:48:17.313Z,8.18
2024-05-09T05:49:22.253Z,8.32
2024-05-09T05:50:31.885Z,8.47
2024-05-09T05:51:37.488Z,8.51
2024-05-09T05:52:39.156Z,8.68
2024-05-09T05:53:41.126Z,8.78
2024-05-09T05:54:43.076Z,8.78
2024-05-09T05:55:44.783Z,8.91
2024-05-09T05:56:46.526Z,8.85
2024-05-09T05:57:48.272Z,8.85
2024-05-09T05:58:49.955Z,8.80
2024-05-09T05:59:51.616Z,8.72
2024-05-09T06:00:53.420Z,8.85
2024-05-09T06:01:55.178Z,8.98
2024-05-09T06:02:57.683Z,8.99
2024-05-09T06:03:59.556Z,8.85
2024-05-09T06:05:04.550Z,8.69
2024-05-09T06:06:06.360Z,8.75
2024-05-09T06:07:08.057Z,8.97
2024-05-09T06:08:09.799Z,9.26
2024-05-09T06:09:11.498Z,9.47
2024-05-09T06:10:17.655Z,9.63
2024-05-09T06:11:23.518Z,9.80
2024-05-09T06:12:25.427Z,9.92
2024-05-09T06:13:27.151Z,10.04
2024-05-09T06:14:28.950Z,10.16
2024-05-09T06:15:30.607Z,10.28
2024-05-09T06:16:32.244Z,10.14
2024-05-09T06:17:34.025Z,9.99
2024-05-09T06:18:35.972Z,10.15
2024-05-09T06:19:38.002Z,10.21
2024-05-09T06:20:43.808Z,10.19
2024-05-09T06:21:46.036Z,9.59
2024-05-09T06:22:47.764Z,9.58
2024-05-09T06:23:49.688Z,9.75
2024-05-09T06:24:51.367Z,9.99
2024-05-09T06:25:53.117Z,10.23
2024-05-09T06:26:54.759Z,10.42
2024-05-09T06:27:56.769Z,10.07
2024-05-09T06:29:00.934Z,9.77
2024-05-09T06:30:02.983Z,9.73
2024-05-09T06:31:05.483Z,9.62
2024-05-09T06:32:07.533Z,9.91
2024-05-09T06:33:11.745Z,10.23
2024-05-09T06:34:18.466Z,10.36
2024-05-09T06:35:20.379Z,10.38
2024-05-09T06:36:24.762Z,10.42
2024-05-09T06:37:26.477Z,10.18
2024-05-09T06:38:28.589Z,10.46
2024-05-09T06:39:30.372Z,10.53
2024-05-09T06:40:38.013Z,10.62
2024-05-09T06:41:42.012Z,10.71
2024-05-09T06:42:43.785Z,10.43
2024-05-09T06:43:45.470Z,10.18
2024-05-09T06:44:47.152Z,10.22
2024-05-09T06:45:49.461Z,10.58
2024-05-09T06:46:51.289Z,10.88
2024-05-09T06:47:53.232Z,11.01
2024-05-09T06:48:55.308Z,10.95
2024-05-09T06:49:57.090Z,10.75
2024-05-09T06:50:58.851Z,10.54
2024-05-09T06:52:03.496Z,10.48
2024-05-09T06:53:05.667Z,10.75
2024-05-09T06:54:08.218Z,11.03
2024-05-09T06:55:09.851Z,11.19
2024-05-09T06:56:11.550Z,11.25
2024-05-09T06:57:13.281Z,11.48
2024-05-09T06:58:14.942Z,11.68
2024-05-09T06:59:16.598Z,11.83
2024-05-09T07:00:27.120Z,11.92
2024-05-09T07:01:36.018Z,11.95
2024-05-09T07:02:37.852Z,11.78
2024-05-09T07:03:41.380Z,11.74
2024-05-09T07:04:43.194Z,11.85
2024-05-09T07:05:45.451Z,11.70
2024-05-09T07:06:47.941Z,11.64
2024-05-09T07:07:52.214Z,11.67
2024-05-09T07:08:54.072Z,11.92
2024-05-09T07:09:55.738Z,11.90
2024-05-09T07:10:57.418Z,11.85
2024-05-09T07:11:59.230Z,11.91
2024-05-09T07:13:00.961Z,11.82
2024-05-09T07:14:02.676Z,11.84
2024-05-09T07:15:05.132Z,12.07
2024-05-09T07:16:07.194Z,12.29
2024-05-09T07:17:09.075Z,12.41
2024-05-09T07:18:11.173Z,12.58
2024-05-09T07:19:13.242Z,12.63
2024-05-09T07:20:23.154Z,12.37
2024-05-09T07:21:29.504Z,12.53
2024-05-09T07:22:31.096Z,12.73
2024-05-09T07:23:35.407Z,12.94
2024-05-09T07:24:37.312Z,13.08
2024-05-09T07:25:40.151Z,13.11
2024-05-09T07:26:41.879Z,12.96
2024-05-09T07:27:43.548Z,12.84
2024-05-09T07:28:45.239Z,12.86
2024-05-09T07:29:47.102Z,12.98
2024-05-09T07:30:48.822Z,12.85
2024-05-09T07:31:51.055Z,13.01
2024-05-09T07:32:53.012Z,13.26
2024-05-09T07:33:54.805Z,12.92
2024-05-09T07:34:56.543Z,12.95
2024-05-09T07:35:58.203Z,13.09
2024-05-09T07:36:59.835Z,13.20
2024-05-09T07:38:01.548Z,13.29
2024-05-09T07:39:05.920Z,13.54
2024-05-09T07:40:11.994Z,13.47
2024-05-09T07:41:13.829Z,13.60
2024-05-09T07:42:15.542Z,13.77
2024-05-09T07:43:17.285Z,13.92
2024-05-09T07:44:20.303Z,13.98
2024-05-09T07:45:40.603Z,14.18
2024-05-09T07:49:13.233Z,13.76
2024-05-09T07:50:53.485Z,13.70
2024-05-09T07:53:14.336Z,13.97
2024-05-09T07:53:36.088Z,14.02
2024-05-09T07:54:25.150Z,13.94
2024-05-09T07:55:27.079Z,13.97
2024-05-09T07:56:29.105Z,14.15
2024-05-09T07:57:30.962Z,14.44
2024-05-09T07:58:32.582Z,14.65
2024-05-09T07:59:37.655Z,14.53
2024-05-09T08:00:39.724Z,14.49
2024-05-09T08:01:41.551Z,14.51
2024-05-09T08:02:43.231Z,14.76
2024-05-09T08:03:45.427Z,14.94
2024-05-09T08:04:47.651Z,15.07
2024-05-09T08:05:49.352Z,15.21
2024-05-09T08:06:51.135Z,15.41
2024-05-09T08:07:52.793Z,15.43
2024-05-09T08:08:54.457Z,15.52
2024-05-09T08:09:58.731Z,15.58
2024-05-09T08:11:01.764Z,14.83
2024-05-09T08:12:03.705Z,14.54
2024-05-09T08:13:05.648Z,14.60
2024-05-09T08:14:07.483Z,14.87
2024-05-09T08:15:09.153Z,14.73
2024-05-09T08:16:11.154Z,14.65
2024-05-09T08:17:13.413Z,14.55
2024-05-09T08:18:15.441Z,14.64
2024-05-09T08:19:17.408Z,14.84
2024-05-09T08:20:26.968Z,15.00
2024-05-09T08:21:32.931Z,15.21
2024-05-09T08:22:34.578Z,15.01
2024-05-09T08:23:36.260Z,15.05
2024-05-09T08:24:38.037Z,15.06
2024-05-09T08:25:42.351Z,15.15
2024-05-09T08:26:44.037Z,15.07
2024-05-09T08:27:45.731Z,15.13
2024-05-09T08:28:47.410Z,15.28
2024-05-09T08:29:49.102Z,15.20
2024-05-09T08:30:50.920Z,15.24
2024-05-09T08:31:52.731Z,15.23
2024-05-09T08:32:54.608Z,15.57
2024-05-09T08:33:56.538Z,15.89
2024-05-09T08:34:58.425Z,16.17
2024-05-09T08:36:00.403Z,16.32
2024-05-09T08:37:10.065Z,16.49
2024-05-09T08:38:17.232Z,16.68
2024-05-09T08:39:18.909Z,16.65
2024-05-09T08:40:30.445Z,16.17
2024-05-09T08:41:42.208Z,16.01
2024-05-09T08:42:48.654Z,15.97
2024-05-09T08:43:50.386Z,16.21
2024-05-09T08:44:52.249Z,16.32
2024-05-09T08:45:53.973Z,16.15
2024-05-09T08:46:55.989Z,16.28
2024-05-09T08:48:00.833Z,16.50
2024-05-09T08:49:03.337Z,16.46
2024-05-09T08:50:13.565Z,16.62
2024-05-09T08:51:19.083Z,16.73
2024-05-09T08:52:20.774Z,16.21
2024-05-09T08:53:22.485Z,16.22
2024-05-09T08:54:24.123Z,15.82
2024-05-09T08:55:25.848Z,15.58
2024-05-09T08:56:28.554Z,15.63
2024-05-09T08:57:35.486Z,15.82
2024-05-09T08:58:37.673Z,15.69
2024-05-09T08:59:45.006Z,15.50
2024-05-09T09:00:47.730Z,15.51
2024-05-09T09:01:50.667Z,15.76
2024-05-09T09:02:52.534Z,15.62
2024-05-09T09:03:55.089Z,15.46
2024-05-09T09:05:03.291Z,15.67
2024-05-09T09:06:06.564Z,15.93
2024-05-09T09:07:08.353Z,16.14
2024-05-09T09:08:10.089Z,16.11
2024-05-09T09:09:11.930Z,16.04
2024-05-09T09:10:21.109Z,15.97
2024-05-09T09:11:26.935Z,15.97
2024-05-09T09:12:28.605Z,16.10
2024-05-09T09:13:33.157Z,16.18
2024-05-09T09:14:34.917Z,16.20
2024-05-09T09:15:47.095Z,16.35
2024-05-09T09:16:49.079Z,16.50
2024-05-09T09:17:55.920Z,16.44
2024-05-09T09:18:58.045Z,16.50
2024-05-09T09:20:00.620Z,16.27
2024-05-09T09:21:02.459Z,16.64
2024-05-09T09:22:04.459Z,16.69
2024-05-09T09:23:07.495Z,16.65
2024-05-09T09:24:10.047Z,16.73
2024-05-09T09:25:12.802Z,16.64
2024-05-09T09:26:16.216Z,16.63
2024-05-09T09:27:18.830Z,16.85
2024-05-09T09:28:22.949Z,16.81
2024-05-09T09:29:27.248Z,16.72
2024-05-09T09:30:36.921Z,16.61
2024-05-09T09:31:40.174Z,16.64
2024-05-09T09:32:49.570Z,16.92
2024-05-09T09:33:52.135Z,17.07
2024-05-09T09:34:54.167Z,17.19
2024-05-09T09:35:57.313Z,17.44
2024-05-09T09:37:05.158Z,17.19
2024-05-09T09:38:08.529Z,17.19
2024-05-09T09:39:12.056Z,17.44
2024-05-09T09:40:15.675Z,17.15
2024-05-09T09:41:30.085Z,16.98
2024-05-09T09:42:34.761Z,16.66
2024-05-09T09:43:36.889Z,16.67
2024-05-09T09:44:47.825Z,16.85
2024-05-09T09:45:56.368Z,16.69
2024-05-09T09:46:59.731Z,16.71
2024-05-09T09:48:05.689Z,17.06
2024-05-09T09:49:09.210Z,17.16
2024-05-09T09:50:23.574Z,17.32
2024-05-09T09:51:30.404Z,17.46
2024-05-09T09:52:32.995Z,17.51
2024-05-09T09:53:38.480Z,17.41
2024-05-09T09:54:44.319Z,17.33
2024-05-09T09:55:54.416Z,17.71
2024-05-09T09:56:56.310Z,17.62
2024-05-09T09:57:59.444Z,17.84
2024-05-09T09:59:04.384Z,17.95
2024-05-09T10:00:17.288Z,17.83
2024-05-09T10:01:23.069Z,17.77
2024-05-09T10:02:27.875Z,17.40
2024-05-09T10:03:30.094Z,17.70
2024-05-09T10:04:40.793Z,17.62
2024-05-09T10:05:46.463Z,17.65
2024-05-09T10:06:54.558Z,17.44
2024-05-09T10:07:58.299Z,17.36
2024-05-09T10:09:02.029Z,17.42
2024-05-09T10:10:06.826Z,17.79
2024-05-09T10:11:11.245Z,18.29
2024-05-09T10:12:14.299Z,18.17
2024-05-09T10:13:16.578Z,18.16
2024-05-09T10:14:21.312Z,17.96
2024-05-09T10:15:26.195Z,17.29
2024-05-09T10:16:38.283Z,17.49
2024-05-09T10:17:49.631Z,18.02
2024-05-09T10:18:51.514Z,18.50
2024-05-09T10:20:11.691Z,18.03
2024-05-09T10:21:20.517Z,17.93
2024-05-09T10:22:34.855Z,18.07
2024-05-09T10:23:37.703Z,18.18
2024-05-09T10:24:47.061Z,18.41
2024-05-09T10:25:55.447Z,18.71
2024-05-09T10:26:57.191Z,18.09
2024-05-09T10:27:59.373Z,18.41
2024-05-09T10:29:10.252Z,19.00
2024-05-09T10:30:29.568Z,19.72
2024-05-09T10:31:41.288Z,20.09
2024-05-09T10:32:44.803Z,19.91
2024-05-09T10:33:48.356Z,19.26
2024-05-09T10:34:59.615Z,19.04
2024-05-09T10:36:02.973Z,18.54
2024-05-09T10:37:05.190Z,18.59
2024-05-09T10:38:08.295Z,18.02
2024-05-09T10:39:10.571Z,18.19
2024-05-09T10:40:23.355Z,18.60
2024-05-09T10:41:30.573Z,19.31
2024-05-09T10:42:32.880Z,19.13
2024-05-09T10:43:38.992Z,19.25
2024-05-09T10:44:42.343Z,18.96
2024-05-09T10:45:44.165Z,19.48
2024-05-09T10:46:48.638Z,19.96
2024-05-09T10:47:54.516Z,19.73
2024-05-09T10:48:58.320Z,19.64
2024-05-09T10:50:00.458Z,19.30
2024-05-09T10:51:02.288Z,19.27
2024-05-09T10:52:04.560Z,18.76
2024-05-09T10:53:06.215Z,19.29
2024-05-09T10:54:07.926Z,19.06
2024-05-09T10:55:09.634Z,19.08
2024-05-09T10:56:12.929Z,18.55
2024-05-09T10:57:14.775Z,18.34
2024-05-09T10:58:17.392Z,18.93
2024-05-09T10:59:19.194Z,19.60
2024-05-09T11:00:27.600Z,19.02
2024-05-09T11:01:35.325Z,18.92
2024-05-09T11:02:39.944Z,19.28
2024-05-09T11:03:42.468Z,18.62
2024-05-09T11:04:44.719Z,18.93
2024-05-09T11:05:46.721Z,19.03
2024-05-09T11:06:48.565Z,19.25
2024-05-09T11:07:50.790Z,19.95
2024-05-09T11:08:52.717Z,18.94
2024-05-09T11:09:54.530Z,19.09
2024-05-09T11:10:56.488Z,19.48
2024-05-09T11:11:58.574Z,20.42
2024-05-09T11:13:00.377Z,20.61
2024-05-09T11:14:11.801Z,20.58
2024-05-09T11:15:13.628Z,20.27
2024-05-09T11:16:19.286Z,20.37
2024-05-09T11:17:21.498Z,21.04
2024-05-09T11:18:30.392Z,21.23
2024-05-09T11:19:37.805Z,21.44
2024-05-09T11:20:39.662Z,21.87
2024-05-09T11:21:50.770Z,22.36
2024-05-09T11:22:52.470Z,22.30
2024-05-09T11:23:54.470Z,21.96
2024-05-09T11:24:56.216Z,21.12
2024-05-09T11:25:58.963Z,21.75
2024-05-09T11:27:02.816Z,22.11
2024-05-09T11:28:05.870Z,22.56
2024-05-09T11:29:07.586Z,22.18
2024-05-09T11:30:24.279Z,22.11
2024-05-09T11:31:33.273Z,22.18
2024-05-09T11:32:37.542Z,22.19
2024-05-09T11:33:43.860Z,22.09
2024-05-09T11:34:46.352Z,22.37
2024-05-09T11:35:48.026Z,22.20
2024-05-09T11:36:49.702Z,22.85
2024-05-09T11:37:51.360Z,23.66
2024-05-09T11:38:53.028Z,24.24
2024-05-09T11:39:54.907Z,24.33
2024-05-09T11:40:56.628Z,23.72
2024-05-09T11:41:58.236Z,23.54
2024-05-09T11:43:00.041Z,22.86
2024-05-09T11:44:01.957Z,23.27
2024-05-09T11:45:03.876Z,24.01
2024-05-09T11:46:05.808Z,25.12
2024-05-09T11:47:07.586Z,25.63
2024-05-09T11:48:09.628Z,24.88
2024-05-09T11:49:14.107Z,24.19
2024-05-09T11:50:22.696Z,23.58
2024-05-09T11:51:31.345Z,23.33
2024-05-09T11:52:33.027Z,23.53
2024-05-09T11:53:34.762Z,22.43
2024-05-09T11:54:36.855Z,22.76
2024-05-09T11:55:38.493Z,23.47
2024-05-09T11:56:40.138Z,23.90
2024-05-09T11:57:41.807Z,24.21
2024-05-09T11:58:43.504Z,24.33
2024-05-09T11:59:45.140Z,24.09
2024-05-09T12:00:47.163Z,24.32
2024-05-09T12:01:49.330Z,23.35
2024-05-09T12:02:51.199Z,23.16
2024-05-09T12:03:54.251Z,22.96
2024-05-09T12:04:58.746Z,21.62
2024-05-09T12:06:00.907Z,21.97
2024-05-09T12:07:02.978Z,22.86
2024-05-09T12:08:05.438Z,23.08
2024-05-09T12:09:07.147Z,22.88
2024-05-09T12:10:14.172Z,23.03
2024-05-09T12:11:20.903Z,23.35
2024-05-09T12:12:22.642Z,23.92
2024-05-09T12:13:24.427Z,24.14
2024-05-09T12:14:26.209Z,24.67
2024-05-09T12:15:27.936Z,23.92
2024-05-09T12:16:29.856Z,24.14
2024-05-09T12:17:31.828Z,24.86
2024-05-09T12:18:33.679Z,25.21
2024-05-09T12:19:35.450Z,24.14
2024-05-09T12:20:40.373Z,24.09
2024-05-09T12:21:42.145Z,24.87
2024-05-09T12:22:43.879Z,24.34
2024-05-09T12:23:45.482Z,24.38
2024-05-09T12:24:47.115Z,24.69
2024-05-09T12:25:48.795Z,25.79
2024-05-09T12:26:50.683Z,25.88
2024-05-09T12:27:52.672Z,24.44
2024-05-09T12:28:54.296Z,24.40
2024-05-09T12:29:55.926Z,23.03
2024-05-09T12:30:57.660Z,23.16
2024-05-09T12:31:59.363Z,23.96
2024-05-09T12:33:01.169Z,22.22
2024-05-09T12:34:02.921Z,21.85
2024-05-09T12:35:05.235Z,22.12
2024-05-09T12:36:09.751Z,23.63
2024-05-09T12:37:11.492Z,24.29
2024-05-09T12:38:13.460Z,24.63
2024-05-09T12:39:15.184Z,24.92
2024-05-09T12:40:26.757Z,24.45
2024-05-09T12:41:36.259Z,23.33
2024-05-09T12:42:37.969Z,23.29
2024-05-09T12:43:40.031Z,23.18
2024-05-09T12:44:45.704Z,24.27
2024-05-09T12:45:47.564Z,24.69
2024-05-09T12:46:50.768Z,24.64
2024-05-09T12:47:52.594Z,24.39
2024-05-09T12:48:55.347Z,24.55
2024-05-09T12:49:57.611Z,24.49
2024-05-09T12:50:59.460Z,25.08
2024-05-09T12:52:04.743Z,25.29
2024-05-09T12:53:06.745Z,25.02
2024-05-09T12:54:09.151Z,24.64
2024-05-09T12:55:11.397Z,24.99
2024-05-09T12:56:14.480Z,24.00
2024-05-09T12:57:16.728Z,21.77
2024-05-09T12:58:21.163Z,22.15
2024-05-09T12:59:22.885Z,23.19
2024-05-09T13:00:31.815Z,22.70
2024-05-09T13:01:38.714Z,23.08
2024-05-09T13:02:40.783Z,23.80
2024-05-09T13:03:42.742Z,24.43
2024-05-09T13:04:44.786Z,22.98
2024-05-09T13:05:49.653Z,23.17
2024-05-09T13:06:52.321Z,24.07
2024-05-09T13:07:57.560Z,23.04
2024-05-09T13:08:59.790Z,24.24
2024-05-09T13:10:11.805Z,24.48
2024-05-09T13:11:17.833Z,24.73
2024-05-09T13:12:20.973Z,25.77
2024-05-09T13:13:23.613Z,24.62
2024-05-09T13:14:26.004Z,25.55
2024-05-09T13:15:27.696Z,25.89
2024-05-09T13:16:29.745Z,25.06
2024-05-09T13:17:31.726Z,22.33
2024-05-09T13:18:35.980Z,20.76
2024-05-09T13:19:37.710Z,21.13
2024-05-09T13:20:39.446Z,22.85
2024-05-09T13:21:41.791Z,23.84
2024-05-09T13:22:45.525Z,24.20
2024-05-09T13:23:51.189Z,24.96
2024-05-09T13:24:57.072Z,25.13
2024-05-09T13:25:59.018Z,23.19
2024-05-09T13:27:00.756Z,22.34
2024-05-09T13:28:03.484Z,21.46
2024-05-09T13:29:06.012Z,23.12
2024-05-09T13:30:14.676Z,24.07
2024-05-09T13:31:23.305Z,24.05
2024-05-09T13:32:36.153Z,22.94
2024-05-09T13:33:43.383Z,24.54
2024-05-09T13:34:47.445Z,22.36
2024-05-09T13:35:51.719Z,24.08
2024-05-09T13:36:53.869Z,25.03
2024-05-09T13:37:56.953Z,25.76
2024-05-09T13:39:01.253Z,24.68
2024-05-09T13:40:06.754Z,25.67
2024-05-09T13:41:08.662Z,26.77
2024-05-09T13:42:11.095Z,27.09
2024-05-09T13:43:13.179Z,27.87
2024-05-09T13:44:15.105Z,28.21
2024-05-09T13:45:16.749Z,28.01
2024-05-09T13:46:18.588Z,27.11
2024-05-09T13:47:21.033Z,26.46
2024-05-09T13:48:22.980Z,26.20
2024-05-09T13:49:25.940Z,26.37
2024-05-09T13:50:33.660Z,24.59